sensor_id;sensor_type;location;lat;lon;timestamp;P1;durP1;ratioP1;P2;durP2;ratioP2
1679;SDS011;838;51.794;12.258;2023-07-28T00:02:05;2.40;;;0.60;;
1679;SDS011;838;51.794;12.258;2023-07-28T00:04:31;2.63;;;0.67;;
1679;SDS011;838;51.794;12.258;2023-07-28T00:06:57;3.17;;;0.90;;
1679;SDS011;838;51.794;12.258;2023-07-28T00:09:22;2.73;;;0.83;;
1679;SDS011;838;51.794;12.258;2023-07-28T00:11:48;2.60;;;0.67;;
1679;SDS011;838;51.794;12.258;2023-07-28T00:14:14;3.03;;;0.70;;
1679;SDS011;838;51.794;12.258;2023-07-28T00:16:40;3.73;;;0.70;;
1679;SDS011;838;51.794;12.258;2023-07-28T00:19:05;2.90;;;0.90;;
1679;SDS011;838;51.794;12.258;2023-07-28T00:21:31;2.37;;;0.50;;
1679;SDS011;838;51.794;12.258;2023-07-28T00:23:57;2.37;;;0.50;;
1679;SDS011;838;51.794;12.258;2023-07-28T00:26:23;2.50;;;0.70;;
1679;SDS011;838;51.794;12.258;2023-07-28T00:28:49;3.60;;;0.60;;
1679;SDS011;838;51.794;12.258;2023-07-28T00:31:14;2.40;;;0.70;;
1679;SDS011;838;51.794;12.258;2023-07-28T00:33:40;4.60;;;0.60;;
1679;SDS011;838;51.794;12.258;2023-07-28T00:36:07;2.50;;;0.53;;
1679;SDS011;838;51.794;12.258;2023-07-28T00:38:33;2.97;;;0.60;;
1679;SDS011;838;51.794;12.258;2023-07-28T00:40:58;2.50;;;0.50;;
1679;SDS011;838;51.794;12.258;2023-07-28T00:43:24;2.40;;;0.67;;
1679;SDS011;838;51.794;12.258;2023-07-28T00:45:50;2.50;;;0.70;;
1679;SDS011;838;51.794;12.258;2023-07-28T00:48:16;2.47;;;0.67;;
1679;SDS011;838;51.794;12.258;2023-07-28T00:50:46;2.70;;;0.90;;
1679;SDS011;838;51.794;12.258;2023-07-28T00:53:13;2.40;;;0.60;;
1679;SDS011;838;51.794;12.258;2023-07-28T00:55:39;2.40;;;0.60;;
1679;SDS011;838;51.794;12.258;2023-07-28T00:58:04;4.50;;;0.70;;
1679;SDS011;838;51.794;12.258;2023-07-28T01:00:30;3.60;;;0.83;;
1679;SDS011;838;51.794;12.258;2023-07-28T01:02:57;3.83;;;0.70;;
1679;SDS011;838;51.794;12.258;2023-07-28T01:05:26;3.20;;;0.87;;
1679;SDS011;838;51.794;12.258;2023-07-28T01:08:06;3.80;;;0.80;;
1679;SDS011;838;51.794;12.258;2023-07-28T01:11:10;2.60;;;0.70;;
1679;SDS011;838;51.794;12.258;2023-07-28T01:13:36;2.40;;;0.60;;
1679;SDS011;838;51.794;12.258;2023-07-28T01:16:01;3.50;;;0.70;;
1679;SDS011;838;51.794;12.258;2023-07-28T01:18:27;5.27;;;0.63;;
1679;SDS011;838;51.794;12.258;2023-07-28T01:20:54;7.50;;;0.87;;
1679;SDS011;838;51.794;12.258;2023-07-28T01:23:33;2.53;;;0.57;;
1679;SDS011;838;51.794;12.258;2023-07-28T01:26:09;6.10;;;1.23;;
1679;SDS011;838;51.794;12.258;2023-07-28T01:28:37;2.57;;;0.73;;
1679;SDS011;838;51.794;12.258;2023-07-28T01:31:05;3.27;;;0.60;;
1679;SDS011;838;51.794;12.258;2023-07-28T01:33:32;2.90;;;0.77;;
1679;SDS011;838;51.794;12.258;2023-07-28T01:35:58;3.57;;;0.70;;
1679;SDS011;838;51.794;12.258;2023-07-28T01:38:25;3.03;;;0.80;;
1679;SDS011;838;51.794;12.258;2023-07-28T01:40:54;2.63;;;0.70;;
1679;SDS011;838;51.794;12.258;2023-07-28T01:43:19;2.50;;;0.50;;
1679;SDS011;838;51.794;12.258;2023-07-28T01:45:45;3.53;;;0.70;;
1679;SDS011;838;51.794;12.258;2023-07-28T01:48:11;2.60;;;0.50;;
1679;SDS011;838;51.794;12.258;2023-07-28T01:50:37;2.70;;;0.90;;
1679;SDS011;838;51.794;12.258;2023-07-28T01:53:04;2.40;;;0.50;;
1679;SDS011;838;51.794;12.258;2023-07-28T01:55:30;3.37;;;0.70;;
1679;SDS011;838;51.794;12.258;2023-07-28T01:57:57;2.83;;;0.50;;
1679;SDS011;838;51.794;12.258;2023-07-28T02:00:25;3.73;;;0.70;;
1679;SDS011;838;51.794;12.258;2023-07-28T02:02:52;2.90;;;0.70;;
1679;SDS011;838;51.794;12.258;2023-07-28T02:05:18;3.20;;;0.70;;
1679;SDS011;838;51.794;12.258;2023-07-28T02:07:44;2.40;;;0.60;;
1679;SDS011;838;51.794;12.258;2023-07-28T02:10:10;2.93;;;0.70;;
1679;SDS011;838;51.794;12.258;2023-07-28T02:12:39;2.60;;;0.70;;
1679;SDS011;838;51.794;12.258;2023-07-28T02:15:05;2.50;;;0.70;;
1679;SDS011;838;51.794;12.258;2023-07-28T02:17:32;3.87;;;0.70;;
1679;SDS011;838;51.794;12.258;2023-07-28T02:19:58;2.40;;;0.60;;
1679;SDS011;838;51.794;12.258;2023-07-28T02:22:23;2.43;;;0.70;;
1679;SDS011;838;51.794;12.258;2023-07-28T02:24:49;2.50;;;0.70;;
1679;SDS011;838;51.794;12.258;2023-07-28T02:27:15;3.23;;;0.80;;
1679;SDS011;838;51.794;12.258;2023-07-28T02:29:41;3.50;;;0.80;;
1679;SDS011;838;51.794;12.258;2023-07-28T02:32:10;2.80;;;0.70;;
1679;SDS011;838;51.794;12.258;2023-07-28T02:34:35;2.40;;;0.60;;
1679;SDS011;838;51.794;12.258;2023-07-28T02:37:01;2.57;;;0.80;;
1679;SDS011;838;51.794;12.258;2023-07-28T02:39:27;2.50;;;0.60;;
1679;SDS011;838;51.794;12.258;2023-07-28T02:41:53;3.27;;;0.53;;
1679;SDS011;838;51.794;12.258;2023-07-28T02:44:19;3.10;;;0.80;;
1679;SDS011;838;51.794;12.258;2023-07-28T02:46:45;4.80;;;1.00;;
1679;SDS011;838;51.794;12.258;2023-07-28T02:49:10;2.70;;;0.70;;
1679;SDS011;838;51.794;12.258;2023-07-28T02:51:36;4.70;;;0.70;;
1679;SDS011;838;51.794;12.258;2023-07-28T02:54:02;6.27;;;1.00;;
1679;SDS011;838;51.794;12.258;2023-07-28T02:56:28;5.33;;;0.90;;
1679;SDS011;838;51.794;12.258;2023-07-28T02:58:54;2.70;;;0.67;;
1679;SDS011;838;51.794;12.258;2023-07-28T03:01:20;5.13;;;0.73;;
1679;SDS011;838;51.794;12.258;2023-07-28T03:03:46;2.50;;;0.60;;
1679;SDS011;838;51.794;12.258;2023-07-28T03:06:12;3.30;;;0.70;;
1679;SDS011;838;51.794;12.258;2023-07-28T03:08:38;3.73;;;0.70;;
1679;SDS011;838;51.794;12.258;2023-07-28T03:11:04;2.80;;;0.60;;
1679;SDS011;838;51.794;12.258;2023-07-28T03:13:29;4.70;;;0.60;;
1679;SDS011;838;51.794;12.258;2023-07-28T03:15:55;3.17;;;0.60;;
1679;SDS011;838;51.794;12.258;2023-07-28T03:18:21;3.97;;;0.60;;
1679;SDS011;838;51.794;12.258;2023-07-28T03:20:47;3.37;;;0.67;;
1679;SDS011;838;51.794;12.258;2023-07-28T03:23:13;2.70;;;0.60;;
1679;SDS011;838;51.794;12.258;2023-07-28T03:25:39;3.30;;;0.90;;
1679;SDS011;838;51.794;12.258;2023-07-28T03:28:05;3.57;;;1.10;;
1679;SDS011;838;51.794;12.258;2023-07-28T03:30:30;2.50;;;0.70;;
1679;SDS011;838;51.794;12.258;2023-07-28T03:32:56;4.97;;;0.80;;
1679;SDS011;838;51.794;12.258;2023-07-28T03:35:22;3.60;;;0.80;;
1679;SDS011;838;51.794;12.258;2023-07-28T03:37:48;10.87;;;1.10;;
1679;SDS011;838;51.794;12.258;2023-07-28T03:40:14;3.20;;;1.07;;
1679;SDS011;838;51.794;12.258;2023-07-28T03:42:39;3.90;;;0.67;;
1679;SDS011;838;51.794;12.258;2023-07-28T03:45:05;4.30;;;0.93;;
1679;SDS011;838;51.794;12.258;2023-07-28T03:47:32;3.00;;;1.00;;
1679;SDS011;838;51.794;12.258;2023-07-28T03:49:58;3.60;;;0.87;;
1679;SDS011;838;51.794;12.258;2023-07-28T03:52:24;2.90;;;0.90;;
1679;SDS011;838;51.794;12.258;2023-07-28T03:54:50;2.60;;;0.70;;
1679;SDS011;838;51.794;12.258;2023-07-28T03:57:15;2.90;;;0.70;;
1679;SDS011;838;51.794;12.258;2023-07-28T03:59:41;2.43;;;0.70;;
1679;SDS011;838;51.794;12.258;2023-07-28T04:02:07;2.50;;;0.60;;
1679;SDS011;838;51.794;12.258;2023-07-28T04:04:33;3.30;;;1.00;;
1679;SDS011;838;51.794;12.258;2023-07-28T04:07:00;3.10;;;1.10;;
1679;SDS011;838;51.794;12.258;2023-07-28T04:09:26;2.50;;;0.70;;
1679;SDS011;838;51.794;12.258;2023-07-28T04:11:52;2.80;;;0.70;;
1679;SDS011;838;51.794;12.258;2023-07-28T04:14:17;3.27;;;0.80;;
1679;SDS011;838;51.794;12.258;2023-07-28T04:16:43;2.70;;;0.80;;
1679;SDS011;838;51.794;12.258;2023-07-28T04:19:09;2.77;;;0.60;;
1679;SDS011;838;51.794;12.258;2023-07-28T04:21:35;2.87;;;0.80;;
1679;SDS011;838;51.794;12.258;2023-07-28T04:24:04;3.90;;;0.70;;
1679;SDS011;838;51.794;12.258;2023-07-28T04:26:34;5.50;;;1.27;;
1679;SDS011;838;51.794;12.258;2023-07-28T04:29:00;2.60;;;0.80;;
1679;SDS011;838;51.794;12.258;2023-07-28T04:31:26;2.40;;;0.50;;
1679;SDS011;838;51.794;12.258;2023-07-28T04:33:52;3.67;;;0.87;;
1679;SDS011;838;51.794;12.258;2023-07-28T04:36:17;3.83;;;0.60;;
1679;SDS011;838;51.794;12.258;2023-07-28T04:38:43;4.40;;;1.00;;
1679;SDS011;838;51.794;12.258;2023-07-28T04:41:09;2.70;;;0.80;;
1679;SDS011;838;51.794;12.258;2023-07-28T04:43:35;4.10;;;0.67;;
1679;SDS011;838;51.794;12.258;2023-07-28T04:46:01;4.90;;;0.80;;
1679;SDS011;838;51.794;12.258;2023-07-28T04:48:26;2.67;;;0.60;;
1679;SDS011;838;51.794;12.258;2023-07-28T04:50:52;3.27;;;0.60;;
1679;SDS011;838;51.794;12.258;2023-07-28T04:53:19;4.83;;;0.80;;
1679;SDS011;838;51.794;12.258;2023-07-28T04:55:45;2.70;;;0.70;;
1679;SDS011;838;51.794;12.258;2023-07-28T04:58:10;2.40;;;0.50;;
1679;SDS011;838;51.794;12.258;2023-07-28T05:00:37;3.03;;;0.80;;
1679;SDS011;838;51.794;12.258;2023-07-28T05:03:03;2.50;;;0.60;;
1679;SDS011;838;51.794;12.258;2023-07-28T05:05:29;3.37;;;0.70;;
1679;SDS011;838;51.794;12.258;2023-07-28T05:07:55;6.83;;;0.60;;
1679;SDS011;838;51.794;12.258;2023-07-28T05:10:21;2.67;;;0.73;;
1679;SDS011;838;51.794;12.258;2023-07-28T05:12:47;2.50;;;0.60;;
1679;SDS011;838;51.794;12.258;2023-07-28T05:15:14;2.73;;;0.53;;
1679;SDS011;838;51.794;12.258;2023-07-28T05:17:40;2.70;;;0.80;;
1679;SDS011;838;51.794;12.258;2023-07-28T05:20:06;3.23;;;0.53;;
1679;SDS011;838;51.794;12.258;2023-07-28T05:22:32;3.37;;;0.80;;
1679;SDS011;838;51.794;12.258;2023-07-28T05:24:58;3.73;;;0.50;;
1679;SDS011;838;51.794;12.258;2023-07-28T05:27:25;2.40;;;0.50;;
1679;SDS011;838;51.794;12.258;2023-07-28T05:29:52;2.57;;;0.70;;
1679;SDS011;838;51.794;12.258;2023-07-28T05:32:17;2.50;;;0.50;;
1679;SDS011;838;51.794;12.258;2023-07-28T05:34:43;2.80;;;0.70;;
1679;SDS011;838;51.794;12.258;2023-07-28T05:37:10;2.60;;;0.50;;
1679;SDS011;838;51.794;12.258;2023-07-28T05:39:35;3.67;;;0.90;;
1679;SDS011;838;51.794;12.258;2023-07-28T05:42:01;2.50;;;0.63;;
1679;SDS011;838;51.794;12.258;2023-07-28T05:44:27;3.60;;;0.63;;
1679;SDS011;838;51.794;12.258;2023-07-28T05:46:53;2.60;;;0.70;;
1679;SDS011;838;51.794;12.258;2023-07-28T05:49:19;2.50;;;0.30;;
1679;SDS011;838;51.794;12.258;2023-07-28T05:51:45;3.67;;;0.50;;
1679;SDS011;838;51.794;12.258;2023-07-28T05:54:11;4.53;;;0.60;;
1679;SDS011;838;51.794;12.258;2023-07-28T05:56:40;3.80;;;0.70;;
1679;SDS011;838;51.794;12.258;2023-07-28T05:59:06;3.27;;;0.60;;
1679;SDS011;838;51.794;12.258;2023-07-28T06:01:31;2.50;;;0.50;;
1679;SDS011;838;51.794;12.258;2023-07-28T06:03:58;2.90;;;0.60;;
1679;SDS011;838;51.794;12.258;2023-07-28T06:06:25;2.33;;;0.30;;
1679;SDS011;838;51.794;12.258;2023-07-28T06:08:52;2.70;;;0.53;;
1679;SDS011;838;51.794;12.258;2023-07-28T06:11:20;2.50;;;0.40;;
1679;SDS011;838;51.794;12.258;2023-07-28T06:13:46;2.50;;;0.40;;
1679;SDS011;838;51.794;12.258;2023-07-28T06:16:13;2.40;;;0.40;;
1679;SDS011;838;51.794;12.258;2023-07-28T06:18:39;2.40;;;0.40;;
1679;SDS011;838;51.794;12.258;2023-07-28T06:21:05;2.40;;;0.40;;
1679;SDS011;838;51.794;12.258;2023-07-28T06:23:31;2.40;;;0.40;;
1679;SDS011;838;51.794;12.258;2023-07-28T06:25:57;2.50;;;0.50;;
1679;SDS011;838;51.794;12.258;2023-07-28T06:28:25;2.40;;;0.50;;
1679;SDS011;838;51.794;12.258;2023-07-28T06:30:54;2.80;;;0.50;;
1679;SDS011;838;51.794;12.258;2023-07-28T06:33:21;2.60;;;0.50;;
1679;SDS011;838;51.794;12.258;2023-07-28T06:35:47;3.43;;;0.67;;
1679;SDS011;838;51.794;12.258;2023-07-28T06:38:12;2.43;;;0.40;;
1679;SDS011;838;51.794;12.258;2023-07-28T06:40:38;2.60;;;0.50;;
1679;SDS011;838;51.794;12.258;2023-07-28T06:43:07;3.53;;;0.50;;
1679;SDS011;838;51.794;12.258;2023-07-28T06:45:33;2.30;;;0.30;;
1679;SDS011;838;51.794;12.258;2023-07-28T06:47:59;2.50;;;0.50;;
1679;SDS011;838;51.794;12.258;2023-07-28T06:50:25;2.80;;;0.70;;
1679;SDS011;838;51.794;12.258;2023-07-28T06:52:51;2.47;;;0.50;;
1679;SDS011;838;51.794;12.258;2023-07-28T06:55:18;4.33;;;0.70;;
1679;SDS011;838;51.794;12.258;2023-07-28T06:57:46;2.40;;;0.50;;
1679;SDS011;838;51.794;12.258;2023-07-28T07:00:12;2.40;;;0.50;;
1679;SDS011;838;51.794;12.258;2023-07-28T07:02:39;3.00;;;0.70;;
1679;SDS011;838;51.794;12.258;2023-07-28T07:05:05;3.20;;;0.60;;
1679;SDS011;838;51.794;12.258;2023-07-28T07:07:32;2.77;;;0.70;;
1679;SDS011;838;51.794;12.258;2023-07-28T07:10:13;3.87;;;0.60;;
1679;SDS011;838;51.794;12.258;2023-07-28T07:12:38;2.57;;;0.53;;
1679;SDS011;838;51.794;12.258;2023-07-28T07:15:05;2.40;;;0.60;;
1679;SDS011;838;51.794;12.258;2023-07-28T07:17:32;2.60;;;0.50;;
1679;SDS011;838;51.794;12.258;2023-07-28T07:19:58;3.33;;;0.70;;
1679;SDS011;838;51.794;12.258;2023-07-28T07:22:24;2.60;;;0.60;;
1679;SDS011;838;51.794;12.258;2023-07-28T07:31:34;2.60;;;0.60;;
1679;SDS011;838;51.794;12.258;2023-07-28T07:34:01;3.50;;;0.97;;
1679;SDS011;838;51.794;12.258;2023-07-28T07:36:29;5.80;;;0.87;;
1679;SDS011;838;51.794;12.258;2023-07-28T07:38:56;2.40;;;0.50;;
1679;SDS011;838;51.794;12.258;2023-07-28T07:41:23;2.47;;;0.47;;
1679;SDS011;838;51.794;12.258;2023-07-28T07:43:51;2.50;;;0.60;;
1679;SDS011;838;51.794;12.258;2023-07-28T07:46:18;2.70;;;0.70;;
1679;SDS011;838;51.794;12.258;2023-07-28T07:48:44;2.50;;;0.50;;
1679;SDS011;838;51.794;12.258;2023-07-28T07:51:10;2.40;;;0.40;;
1679;SDS011;838;51.794;12.258;2023-07-28T07:53:36;2.40;;;0.40;;
1679;SDS011;838;51.794;12.258;2023-07-28T07:56:03;2.30;;;0.40;;
1679;SDS011;838;51.794;12.258;2023-07-28T07:58:29;2.40;;;0.40;;
1679;SDS011;838;51.794;12.258;2023-07-28T08:00:57;2.50;;;0.50;;
1679;SDS011;838;51.794;12.258;2023-07-28T08:03:24;2.43;;;0.50;;
1679;SDS011;838;51.794;12.258;2023-07-28T08:05:50;2.57;;;0.60;;
1679;SDS011;838;51.794;12.258;2023-07-28T08:08:17;2.63;;;0.60;;
1679;SDS011;838;51.794;12.258;2023-07-28T08:10:44;2.80;;;0.40;;
1679;SDS011;838;51.794;12.258;2023-07-28T08:13:12;2.40;;;0.50;;
1679;SDS011;838;51.794;12.258;2023-07-28T08:15:38;2.40;;;0.40;;
1679;SDS011;838;51.794;12.258;2023-07-28T08:18:03;2.50;;;0.50;;
1679;SDS011;838;51.794;12.258;2023-07-28T08:20:29;2.43;;;0.43;;
1679;SDS011;838;51.794;12.258;2023-07-28T08:22:55;2.50;;;0.40;;
1679;SDS011;838;51.794;12.258;2023-07-28T08:25:21;2.77;;;0.50;;
1679;SDS011;838;51.794;12.258;2023-07-28T08:27:50;2.50;;;0.50;;
1679;SDS011;838;51.794;12.258;2023-07-28T08:30:16;2.23;;;0.30;;
1679;SDS011;838;51.794;12.258;2023-07-28T08:32:42;2.40;;;0.50;;
1679;SDS011;838;51.794;12.258;2023-07-28T08:35:08;2.30;;;0.40;;
1679;SDS011;838;51.794;12.258;2023-07-28T08:37:34;2.50;;;0.50;;
1679;SDS011;838;51.794;12.258;2023-07-28T08:40:00;3.67;;;0.70;;
1679;SDS011;838;51.794;12.258;2023-07-28T08:42:28;3.67;;;0.57;;
1679;SDS011;838;51.794;12.258;2023-07-28T08:44:55;3.17;;;0.53;;
1679;SDS011;838;51.794;12.258;2023-07-28T08:47:21;2.40;;;0.50;;
1679;SDS011;838;51.794;12.258;2023-07-28T08:49:47;2.40;;;0.50;;
1679;SDS011;838;51.794;12.258;2023-07-28T08:52:15;2.97;;;0.70;;
1679;SDS011;838;51.794;12.258;2023-07-28T08:54:42;2.40;;;0.40;;
1679;SDS011;838;51.794;12.258;2023-07-28T08:57:11;2.70;;;0.70;;
1679;SDS011;838;51.794;12.258;2023-07-28T08:59:37;3.63;;;1.07;;
1679;SDS011;838;51.794;12.258;2023-07-28T09:02:08;2.50;;;0.73;;
1679;SDS011;838;51.794;12.258;2023-07-28T09:04:35;2.50;;;0.67;;
1679;SDS011;838;51.794;12.258;2023-07-28T09:07:00;2.97;;;0.63;;
1679;SDS011;838;51.794;12.258;2023-07-28T09:09:31;2.70;;;0.70;;
1679;SDS011;838;51.794;12.258;2023-07-28T09:11:58;4.60;;;0.53;;
1679;SDS011;838;51.794;12.258;2023-07-28T09:14:25;2.90;;;0.57;;
1679;SDS011;838;51.794;12.258;2023-07-28T09:16:52;2.60;;;0.77;;
1679;SDS011;838;51.794;12.258;2023-07-28T09:19:19;3.20;;;0.80;;
1679;SDS011;838;51.794;12.258;2023-07-28T09:21:47;3.33;;;0.50;;
1679;SDS011;838;51.794;12.258;2023-07-28T09:24:28;2.60;;;0.60;;
1679;SDS011;838;51.794;12.258;2023-07-28T09:26:58;2.50;;;0.50;;
1679;SDS011;838;51.794;12.258;2023-07-28T09:29:25;2.60;;;0.70;;
1679;SDS011;838;51.794;12.258;2023-07-28T09:31:53;2.73;;;0.70;;
1679;SDS011;838;51.794;12.258;2023-07-28T09:34:28;2.57;;;0.67;;
1679;SDS011;838;51.794;12.258;2023-07-28T09:36:54;2.60;;;0.60;;
1679;SDS011;838;51.794;12.258;2023-07-28T09:39:21;2.20;;;0.30;;
1679;SDS011;838;51.794;12.258;2023-07-28T09:41:47;2.30;;;0.50;;
1679;SDS011;838;51.794;12.258;2023-07-28T09:44:13;2.37;;;0.60;;
1679;SDS011;838;51.794;12.258;2023-07-28T09:46:53;2.37;;;0.60;;
1679;SDS011;838;51.794;12.258;2023-07-28T09:49:33;2.70;;;0.60;;
1679;SDS011;838;51.794;12.258;2023-07-28T09:52:05;2.97;;;0.53;;
1679;SDS011;838;51.794;12.258;2023-07-28T09:54:37;2.20;;;0.50;;
1679;SDS011;838;51.794;12.258;2023-07-28T09:57:04;2.40;;;0.50;;
1679;SDS011;838;51.794;12.258;2023-07-28T09:59:40;2.60;;;0.70;;
1679;SDS011;838;51.794;12.258;2023-07-28T10:02:07;3.53;;;0.80;;
1679;SDS011;838;51.794;12.258;2023-07-28T10:04:34;2.40;;;0.67;;
1679;SDS011;838;51.794;12.258;2023-07-28T10:07:00;2.30;;;0.53;;
1679;SDS011;838;51.794;12.258;2023-07-28T10:09:29;2.40;;;0.70;;
1679;SDS011;838;51.794;12.258;2023-07-28T10:11:58;2.70;;;0.90;;
1679;SDS011;838;51.794;12.258;2023-07-28T10:16:56;2.50;;;0.77;;
1679;SDS011;838;51.794;12.258;2023-07-28T10:19:26;2.53;;;0.83;;
1679;SDS011;838;51.794;12.258;2023-07-28T10:22:02;2.80;;;0.90;;
1679;SDS011;838;51.794;12.258;2023-07-28T10:29:59;2.60;;;0.90;;
1679;SDS011;838;51.794;12.258;2023-07-28T10:32:29;2.60;;;0.70;;
1679;SDS011;838;51.794;12.258;2023-07-28T10:37:35;2.93;;;0.80;;
1679;SDS011;838;51.794;12.258;2023-07-28T10:42:53;2.70;;;0.80;;
1679;SDS011;838;51.794;12.258;2023-07-28T10:45:19;2.80;;;1.07;;
1679;SDS011;838;51.794;12.258;2023-07-28T10:47:51;3.00;;;1.13;;
1679;SDS011;838;51.794;12.258;2023-07-28T10:50:20;2.40;;;0.77;;
1679;SDS011;838;51.794;12.258;2023-07-28T10:52:46;2.60;;;0.90;;
1679;SDS011;838;51.794;12.258;2023-07-28T10:55:19;2.70;;;0.90;;
1679;SDS011;838;51.794;12.258;2023-07-28T10:57:46;2.73;;;0.90;;
1679;SDS011;838;51.794;12.258;2023-07-28T11:00:15;2.87;;;1.03;;
1679;SDS011;838;51.794;12.258;2023-07-28T11:02:46;2.50;;;0.80;;
1679;SDS011;838;51.794;12.258;2023-07-28T11:05:22;2.60;;;1.10;;
1679;SDS011;838;51.794;12.258;2023-07-28T11:07:59;2.50;;;0.80;;
1679;SDS011;838;51.794;12.258;2023-07-28T11:10:28;2.53;;;0.90;;
1679;SDS011;838;51.794;12.258;2023-07-28T11:12:59;2.70;;;0.90;;
1679;SDS011;838;51.794;12.258;2023-07-28T11:15:30;2.70;;;0.90;;
1679;SDS011;838;51.794;12.258;2023-07-28T11:17:56;3.20;;;1.00;;
1679;SDS011;838;51.794;12.258;2023-07-28T11:20:23;2.60;;;1.00;;
1679;SDS011;838;51.794;12.258;2023-07-28T11:22:57;3.37;;;1.20;;
1679;SDS011;838;51.794;12.258;2023-07-28T11:25:23;2.70;;;1.00;;
1679;SDS011;838;51.794;12.258;2023-07-28T11:27:50;2.53;;;1.00;;
1679;SDS011;838;51.794;12.258;2023-07-28T11:30:16;2.60;;;0.90;;
1679;SDS011;838;51.794;12.258;2023-07-28T11:32:48;3.17;;;1.33;;
1679;SDS011;838;51.794;12.258;2023-07-28T11:35:19;3.30;;;0.90;;
1679;SDS011;838;51.794;12.258;2023-07-28T11:37:48;2.80;;;0.93;;
1679;SDS011;838;51.794;12.258;2023-07-28T11:40:19;3.13;;;0.93;;
1679;SDS011;838;51.794;12.258;2023-07-28T11:42:53;2.70;;;1.07;;
1679;SDS011;838;51.794;12.258;2023-07-28T11:45:20;2.60;;;0.83;;
1679;SDS011;838;51.794;12.258;2023-07-28T11:47:51;2.80;;;1.10;;
1679;SDS011;838;51.794;12.258;2023-07-28T11:50:28;2.50;;;0.90;;
1679;SDS011;838;51.794;12.258;2023-07-28T11:53:04;2.40;;;0.70;;
1679;SDS011;838;51.794;12.258;2023-07-28T11:55:31;2.73;;;0.77;;
1679;SDS011;838;51.794;12.258;2023-07-28T11:57:58;2.67;;;0.90;;
1679;SDS011;838;51.794;12.258;2023-07-28T12:00:34;4.77;;;1.10;;
1679;SDS011;838;51.794;12.258;2023-07-28T12:03:01;2.57;;;0.77;;
1679;SDS011;838;51.794;12.258;2023-07-28T12:05:34;2.50;;;0.80;;
1679;SDS011;838;51.794;12.258;2023-07-28T12:08:00;2.53;;;0.90;;
1679;SDS011;838;51.794;12.258;2023-07-28T12:10:28;2.77;;;1.13;;
1679;SDS011;838;51.794;12.258;2023-07-28T12:12:57;3.73;;;1.03;;
1679;SDS011;838;51.794;12.258;2023-07-28T12:15:28;2.97;;;1.23;;
1679;SDS011;838;51.794;12.258;2023-07-28T12:18:06;2.70;;;1.07;;
1679;SDS011;838;51.794;12.258;2023-07-28T12:20:47;2.83;;;1.00;;
1679;SDS011;838;51.794;12.258;2023-07-28T12:23:21;2.60;;;1.00;;
1679;SDS011;838;51.794;12.258;2023-07-28T12:25:48;2.83;;;0.80;;
1679;SDS011;838;51.794;12.258;2023-07-28T12:28:15;2.63;;;0.90;;
1679;SDS011;838;51.794;12.258;2023-07-28T12:30:41;2.60;;;1.03;;
1679;SDS011;838;51.794;12.258;2023-07-28T12:33:08;2.70;;;0.80;;
1679;SDS011;838;51.794;12.258;2023-07-28T12:35:34;2.87;;;1.07;;
1679;SDS011;838;51.794;12.258;2023-07-28T12:38:00;3.07;;;0.80;;
1679;SDS011;838;51.794;12.258;2023-07-28T12:40:29;2.90;;;0.80;;
1679;SDS011;838;51.794;12.258;2023-07-28T12:42:56;2.60;;;0.80;;
1679;SDS011;838;51.794;12.258;2023-07-28T12:45:23;3.53;;;1.03;;
1679;SDS011;838;51.794;12.258;2023-07-28T12:47:56;2.30;;;0.53;;
1679;SDS011;838;51.794;12.258;2023-07-28T12:50:22;2.67;;;1.03;;
1679;SDS011;838;51.794;12.258;2023-07-28T12:52:49;4.23;;;1.03;;
1679;SDS011;838;51.794;12.258;2023-07-28T12:55:16;2.57;;;1.13;;
1679;SDS011;838;51.794;12.258;2023-07-28T12:57:42;3.20;;;1.50;;
1679;SDS011;838;51.794;12.258;2023-07-28T13:00:09;2.67;;;1.03;;
1679;SDS011;838;51.794;12.258;2023-07-28T13:02:44;2.57;;;0.90;;
1679;SDS011;838;51.794;12.258;2023-07-28T13:05:11;2.70;;;1.00;;
1679;SDS011;838;51.794;12.258;2023-07-28T13:07:37;2.60;;;1.00;;
1679;SDS011;838;51.794;12.258;2023-07-28T13:10:05;3.00;;;1.30;;
1679;SDS011;838;51.794;12.258;2023-07-28T13:12:33;2.90;;;1.10;;
1679;SDS011;838;51.794;12.258;2023-07-28T13:14:59;3.47;;;1.13;;
1679;SDS011;838;51.794;12.258;2023-07-28T13:17:25;2.30;;;0.83;;
1679;SDS011;838;51.794;12.258;2023-07-28T13:19:51;3.00;;;1.20;;
1679;SDS011;838;51.794;12.258;2023-07-28T13:22:17;2.50;;;1.00;;
1679;SDS011;838;51.794;12.258;2023-07-28T13:24:43;2.40;;;0.90;;
1679;SDS011;838;51.794;12.258;2023-07-28T13:27:08;2.70;;;0.80;;
1679;SDS011;838;51.794;12.258;2023-07-28T13:29:34;3.23;;;1.20;;
1679;SDS011;838;51.794;12.258;2023-07-28T13:32:00;2.33;;;0.90;;
1679;SDS011;838;51.794;12.258;2023-07-28T13:34:26;2.70;;;1.13;;
1679;SDS011;838;51.794;12.258;2023-07-28T13:36:53;2.70;;;1.00;;
1679;SDS011;838;51.794;12.258;2023-07-28T13:39:20;2.20;;;0.83;;
1679;SDS011;838;51.794;12.258;2023-07-28T13:41:45;2.30;;;0.70;;
1679;SDS011;838;51.794;12.258;2023-07-28T13:44:11;2.70;;;1.13;;
1679;SDS011;838;51.794;12.258;2023-07-28T13:46:37;2.53;;;1.13;;
1679;SDS011;838;51.794;12.258;2023-07-28T13:49:02;2.90;;;1.30;;
1679;SDS011;838;51.794;12.258;2023-07-28T13:51:30;2.47;;;0.87;;
1679;SDS011;838;51.794;12.258;2023-07-28T13:53:56;2.50;;;1.10;;
1679;SDS011;838;51.794;12.258;2023-07-28T13:56:23;2.43;;;0.90;;
1679;SDS011;838;51.794;12.258;2023-07-28T13:58:49;4.20;;;1.03;;
1679;SDS011;838;51.794;12.258;2023-07-28T14:01:15;2.37;;;1.03;;
1679;SDS011;838;51.794;12.258;2023-07-28T14:03:40;2.40;;;1.07;;
1679;SDS011;838;51.794;12.258;2023-07-28T14:06:06;2.47;;;1.10;;
1679;SDS011;838;51.794;12.258;2023-07-28T14:08:32;2.43;;;0.90;;
1679;SDS011;838;51.794;12.258;2023-07-28T14:10:58;2.30;;;1.00;;
1679;SDS011;838;51.794;12.258;2023-07-28T14:13:24;2.50;;;1.10;;
1679;SDS011;838;51.794;12.258;2023-07-28T14:15:49;2.47;;;0.80;;
1679;SDS011;838;51.794;12.258;2023-07-28T14:18:16;2.60;;;1.10;;
1679;SDS011;838;51.794;12.258;2023-07-28T14:20:42;2.83;;;1.23;;
1679;SDS011;838;51.794;12.258;2023-07-28T14:23:21;2.23;;;1.07;;
1679;SDS011;838;51.794;12.258;2023-07-28T14:25:48;2.80;;;1.30;;
1679;SDS011;838;51.794;12.258;2023-07-28T14:28:14;3.43;;;1.47;;
1679;SDS011;838;51.794;12.258;2023-07-28T14:30:40;2.57;;;1.17;;
1679;SDS011;838;51.794;12.258;2023-07-28T14:33:11;2.77;;;1.10;;
1679;SDS011;838;51.794;12.258;2023-07-28T14:35:42;2.70;;;1.13;;
1679;SDS011;838;51.794;12.258;2023-07-28T14:38:09;2.80;;;1.17;;
1679;SDS011;838;51.794;12.258;2023-07-28T14:40:35;3.20;;;1.17;;
1679;SDS011;838;51.794;12.258;2023-07-28T14:43:02;2.70;;;1.30;;
1679;SDS011;838;51.794;12.258;2023-07-28T14:45:29;2.27;;;1.00;;
1679;SDS011;838;51.794;12.258;2023-07-28T14:47:55;2.47;;;1.10;;
1679;SDS011;838;51.794;12.258;2023-07-28T14:50:21;2.63;;;1.13;;
1679;SDS011;838;51.794;12.258;2023-07-28T14:52:48;4.77;;;1.27;;
1679;SDS011;838;51.794;12.258;2023-07-28T14:55:14;2.60;;;1.10;;
1679;SDS011;838;51.794;12.258;2023-07-28T14:57:40;2.40;;;1.20;;
1679;SDS011;838;51.794;12.258;2023-07-28T15:00:06;2.60;;;1.10;;
1679;SDS011;838;51.794;12.258;2023-07-28T15:02:35;3.23;;;1.70;;
1679;SDS011;838;51.794;12.258;2023-07-28T15:05:01;2.70;;;1.27;;
1679;SDS011;838;51.794;12.258;2023-07-28T15:07:27;2.93;;;1.23;;
1679;SDS011;838;51.794;12.258;2023-07-28T15:09:55;2.50;;;1.03;;
1679;SDS011;838;51.794;12.258;2023-07-28T15:12:20;2.67;;;1.17;;
1679;SDS011;838;51.794;12.258;2023-07-28T15:14:46;3.10;;;1.13;;
1679;SDS011;838;51.794;12.258;2023-07-28T15:17:12;2.40;;;0.90;;
1679;SDS011;838;51.794;12.258;2023-07-28T15:19:38;2.60;;;1.20;;
1679;SDS011;838;51.794;12.258;2023-07-28T15:22:04;2.80;;;1.13;;
1679;SDS011;838;51.794;12.258;2023-07-28T15:24:30;3.30;;;1.40;;
1679;SDS011;838;51.794;12.258;2023-07-28T15:26:55;2.50;;;1.10;;
1679;SDS011;838;51.794;12.258;2023-07-28T15:29:22;2.50;;;1.10;;
1679;SDS011;838;51.794;12.258;2023-07-28T15:31:48;2.70;;;1.10;;
1679;SDS011;838;51.794;12.258;2023-07-28T15:34:15;2.27;;;0.90;;
1679;SDS011;838;51.794;12.258;2023-07-28T15:36:41;3.47;;;0.90;;